createdAt,value
2018-12-09T00:00:48.280Z,0.00
2018-12-09T00:01:48.254Z,0.00
2018-12-09T00:02:48.235Z,0.00
2018-12-09T00:03:48.229Z,0.00
2018-12-09T00:04:48.229Z,0.00
2018-12-09T00:05:48.259Z,0.00
2018-12-09T00:06:48.198Z,0.00
2018-12-09T00:07:48.202Z,0.00
2018-12-09T00:08:48.186Z,0.00
2018-12-09T00:09:48.165Z,0.00
2018-12-09T00:10:48.158Z,0.00
2018-12-09T00:11:48.185Z,0.00
2018-12-09T00:12:48.135Z,0.00
2018-12-09T00:13:48.130Z,0.00
2018-12-09T00:14:48.115Z,0.00
2018-12-09T00:15:48.101Z,0.00
2018-12-09T00:16:48.084Z,0.00
2018-12-09T00:17:48.105Z,0.00
2018-12-09T00:18:48.168Z,0.00
2018-12-09T00:19:48.064Z,0.00
2018-12-09T00:20:48.044Z,0.00
2018-12-09T00:21:48.033Z,0.00
2018-12-09T00:22:48.023Z,0.00
2018-12-09T00:23:48.039Z,0.00
2018-12-09T00:24:48.003Z,0.00
2018-12-09T00:25:48.016Z,0.00
2018-12-09T00:26:47.975Z,0.00
2018-12-09T00:27:47.974Z,0.00
2018-12-09T00:28:47.955Z,0.00
2018-12-09T00:29:47.972Z,0.00
2018-12-09T00:30:47.928Z,0.00
2018-12-09T00:31:47.934Z,0.00
2018-12-09T00:32:47.908Z,0.00
2018-12-09T00:33:47.910Z,0.00
2018-12-09T00:34:47.888Z,0.00
2018-12-09T00:35:47.907Z,0.00
2018-12-09T00:36:47.863Z,0.00
2018-12-09T00:37:47.883Z,0.00
2018-12-09T00:38:47.847Z,0.00
2018-12-09T00:39:47.830Z,0.00
2018-12-09T00:40:47.819Z,0.00
2018-12-09T00:41:47.856Z,0.00
2018-12-09T00:42:47.800Z,0.00
2018-12-09T00:43:47.800Z,0.00
2018-12-09T00:44:47.787Z,0.00
2018-12-09T00:45:47.818Z,0.00
2018-12-09T00:46:47.758Z,0.00
2018-12-09T00:47:47.772Z,0.00
2018-12-09T00:48:47.732Z,0.00
2018-12-09T00:49:47.721Z,0.00
2018-12-09T00:50:47.729Z,0.00
2018-12-09T00:51:47.705Z,0.00
2018-12-09T00:52:47.689Z,0.00
2018-12-09T00:53:47.747Z,0.00
2018-12-09T00:54:47.675Z,0.00
2018-12-09T00:55:47.655Z,0.00
2018-12-09T00:56:47.654Z,0.00
2018-12-09T00:57:47.638Z,0.00
2018-12-09T00:58:47.642Z,0.00
2018-12-09T00:59:47.665Z,0.00
2018-12-09T01:00:47.609Z,0.00
2018-12-09T01:01:47.591Z,0.00
2018-12-09T01:02:47.596Z,0.00
2018-12-09T01:03:47.574Z,0.00
2018-12-09T01:04:47.557Z,0.00
2018-12-09T01:05:47.580Z,0.00
2018-12-09T01:06:47.558Z,0.00
2018-12-09T01:07:47.526Z,0.00
2018-12-09T01:08:47.571Z,0.00
2018-12-09T01:09:47.503Z,0.00
2018-12-09T01:10:47.491Z,0.00
2018-12-09T01:11:47.521Z,0.00
2018-12-09T01:12:47.470Z,0.00
2018-12-09T01:13:47.475Z,0.00
2018-12-09T01:14:47.475Z,0.00
2018-12-09T01:15:47.533Z,0.00
2018-12-09T01:16:47.431Z,0.00
2018-12-09T01:17:47.468Z,0.00
2018-12-09T01:18:47.424Z,0.00
2018-12-09T01:19:47.393Z,0.00
2018-12-09T01:20:47.420Z,0.00
2018-12-09T01:21:47.406Z,0.00
2018-12-09T01:22:47.362Z,0.00
2018-12-09T01:23:47.382Z,0.00
2018-12-09T01:24:47.384Z,0.00
2018-12-09T01:25:47.349Z,0.00
2018-12-09T01:26:47.317Z,0.00
2018-12-09T01:27:47.310Z,0.00
2018-12-09T01:28:47.297Z,0.00
2018-12-09T01:29:47.313Z,0.00
2018-12-09T01:30:47.315Z,0.00
2018-12-09T01:31:47.276Z,0.00
2018-12-09T01:32:47.261Z,0.00
2018-12-09T01:33:47.240Z,0.00
2018-12-09T01:34:47.228Z,0.00
2018-12-09T01:35:47.249Z,0.00
2018-12-09T01:36:47.218Z,0.00
2018-12-09T01:37:47.385Z,0.00
2018-12-09T01:38:47.245Z,0.00
2018-12-09T01:39:47.175Z,0.00
2018-12-09T01:40:47.178Z,0.00
2018-12-09T01:41:47.185Z,0.00
2018-12-09T01:42:47.142Z,0.00
2018-12-09T01:43:47.143Z,0.00
2018-12-09T01:44:47.302Z,0.00
2018-12-09T01:45:47.106Z,0.00
2018-12-09T01:46:47.102Z,0.00
2018-12-09T01:47:47.131Z,0.00
2018-12-09T01:48:47.083Z,0.00
2018-12-09T01:49:47.131Z,0.00
2018-12-09T01:50:47.090Z,0.00
2018-12-09T01:51:47.041Z,0.00
2018-12-09T01:52:47.037Z,0.00
2018-12-09T01:53:47.055Z,0.00
2018-12-09T01:54:47.012Z,0.00
2018-12-09T01:55:47.015Z,0.00
2018-12-09T01:56:47.002Z,0.00
2018-12-09T01:57:46.978Z,0.00
2018-12-09T01:58:46.971Z,0.00
2018-12-09T01:59:47.516Z,0.00
2018-12-09T02:00:46.946Z,0.00
2018-12-09T02:01:46.934Z,0.00
2018-12-09T02:02:46.937Z,0.00
2018-12-09T02:03:46.920Z,0.00
2018-12-09T02:04:46.900Z,0.00
2018-12-09T02:05:46.959Z,0.00
2018-12-09T02:06:46.881Z,0.00
2018-12-09T02:07:46.868Z,0.00
2018-12-09T02:08:46.900Z,0.00
2018-12-09T02:09:46.844Z,0.00
2018-12-09T02:10:46.935Z,0.00
2018-12-09T02:11:46.855Z,0.00
2018-12-09T02:12:46.819Z,0.00
2018-12-09T02:13:46.880Z,0.00
2018-12-09T02:14:46.805Z,0.00
2018-12-09T02:15:46.779Z,0.00
2018-12-09T02:16:46.774Z,0.00
2018-12-09T02:17:46.789Z,0.00
2018-12-09T02:18:46.747Z,0.00
2018-12-09T02:19:46.737Z,0.00
2018-12-09T02:20:46.735Z,0.00
2018-12-09T02:21:46.714Z,0.00
2018-12-09T02:22:46.703Z,0.00
2018-12-09T02:23:46.729Z,0.00
2018-12-09T02:24:46.681Z,0.00
2018-12-09T02:25:46.678Z,0.00
2018-12-09T02:26:46.687Z,0.00
2018-12-09T02:27:46.682Z,0.00
2018-12-09T02:28:46.635Z,0.00
2018-12-09T02:29:46.656Z,0.00
2018-12-09T02:30:46.617Z,0.00
2018-12-09T02:31:46.606Z,0.00
2018-12-09T02:32:46.625Z,0.00
2018-12-09T02:33:46.583Z,0.00
2018-12-09T02:34:46.571Z,0.00
2018-12-09T02:35:46.596Z,0.00
2018-12-09T02:36:46.577Z,0.00
2018-12-09T02:37:46.550Z,0.00
2018-12-09T02:38:46.542Z,0.00
2018-12-09T02:39:46.527Z,0.00
2018-12-09T02:40:46.514Z,0.00
2018-12-09T02:41:46.528Z,0.00
2018-12-09T02:42:46.495Z,0.00
2018-12-09T02:43:46.481Z,0.00
2018-12-09T02:44:46.487Z,0.00
2018-12-09T02:45:46.455Z,0.00
2018-12-09T02:46:46.443Z,0.00
2018-12-09T02:47:46.465Z,0.00
2018-12-09T02:48:46.418Z,0.00
2018-12-09T02:49:46.406Z,0.00
2018-12-09T02:50:46.421Z,0.00
2018-12-09T02:51:46.398Z,0.00
2018-12-09T02:52:46.377Z,0.00
2018-12-09T02:53:46.407Z,0.00
2018-12-09T02:54:46.366Z,0.00
2018-12-09T02:55:46.345Z,0.00
2018-12-09T02:56:46.365Z,0.00
2018-12-09T02:57:46.319Z,0.00
2018-12-09T02:58:46.328Z,0.00
2018-12-09T02:59:46.330Z,0.00
2018-12-09T03:00:46.294Z,0.00
2018-12-09T03:01:46.279Z,0.00
2018-12-09T03:02:46.289Z,0.00
2018-12-09T03:03:46.258Z,0.00
2018-12-09T03:04:46.241Z,0.00
2018-12-09T03:05:46.297Z,0.00
2018-12-09T03:06:46.225Z,0.00
2018-12-09T03:07:46.214Z,0.00
2018-12-09T03:08:46.217Z,0.00
2018-12-09T03:09:46.187Z,0.00
2018-12-09T03:10:46.225Z,0.00
2018-12-09T03:11:46.208Z,0.00
2018-12-09T03:12:46.169Z,0.00
2018-12-09T03:13:46.287Z,0.00
2018-12-09T03:14:46.197Z,0.00
2018-12-09T03:15:46.123Z,0.00
2018-12-09T03:16:46.123Z,0.00
2018-12-09T03:17:46.135Z,0.00
2018-12-09T03:18:46.093Z,0.00
2018-12-09T03:19:46.079Z,0.00
2018-12-09T03:20:46.089Z,0.00
2018-12-09T03:21:46.062Z,0.00
2018-12-09T03:22:46.047Z,0.00
2018-12-09T03:23:46.065Z,0.00
2018-12-09T03:24:46.026Z,0.00
2018-12-09T03:25:46.014Z,0.00
2018-12-09T03:26:46.014Z,0.00
2018-12-09T03:27:46.018Z,0.00
2018-12-09T03:28:46.002Z,0.00
2018-12-09T03:29:46.041Z,0.00
2018-12-09T03:30:45.977Z,0.00
2018-12-09T03:31:45.988Z,0.00
2018-12-09T03:32:45.951Z,0.00
2018-12-09T03:33:45.928Z,0.00
2018-12-09T03:34:45.921Z,0.00
2018-12-09T03:35:45.991Z,0.00
2018-12-09T03:36:45.898Z,0.00
2018-12-09T03:37:45.883Z,0.00
2018-12-09T03:38:45.872Z,0.00
2018-12-09T03:39:45.861Z,0.00
2018-12-09T03:40:45.859Z,0.00
2018-12-09T03:41:45.887Z,0.00
2018-12-09T03:42:45.826Z,0.00
2018-12-09T03:43:45.816Z,0.00
2018-12-09T03:44:45.804Z,0.00
2018-12-09T03:45:45.796Z,0.00
2018-12-09T03:46:45.802Z,0.00
2018-12-09T03:47:45.801Z,0.00
2018-12-09T03:48:45.767Z,0.00
2018-12-09T03:49:45.764Z,0.00
2018-12-09T03:50:45.743Z,0.00
2018-12-09T03:51:45.754Z,0.00
2018-12-09T03:52:45.882Z,0.00
2018-12-09T03:53:45.744Z,0.00
2018-12-09T03:54:45.699Z,0.00
2018-12-09T03:55:45.687Z,0.00
2018-12-09T03:56:45.674Z,0.00
2018-12-09T03:57:45.665Z,0.00
2018-12-09T03:58:45.687Z,0.00
2018-12-09T03:59:45.693Z,0.00
2018-12-09T04:00:45.636Z,0.00
2018-12-09T04:01:45.624Z,0.00
2018-12-09T04:02:45.610Z,0.00
2018-12-09T04:03:45.599Z,0.00
2018-12-09T04:04:45.620Z,0.00
2018-12-09T04:05:45.654Z,0.00
2018-12-09T04:06:45.567Z,0.00
2018-12-09T04:07:45.558Z,0.00
2018-12-09T04:08:45.544Z,0.00
2018-12-09T04:09:45.535Z,0.00
2018-12-09T04:10:45.538Z,0.00
2018-12-09T04:11:45.547Z,0.00
2018-12-09T04:12:45.500Z,0.00
2018-12-09T04:13:45.492Z,0.00
2018-12-09T04:14:45.480Z,0.00
2018-12-09T04:15:45.473Z,0.00
2018-12-09T04:16:45.470Z,0.00
2018-12-09T04:17:45.476Z,0.00
2018-12-09T04:18:45.435Z,0.00
2018-12-09T04:19:45.426Z,0.00
2018-12-09T04:20:45.415Z,0.00
2018-12-09T04:21:45.403Z,0.00
2018-12-09T04:22:45.401Z,0.00
2018-12-09T04:23:45.435Z,0.00
2018-12-09T04:24:45.385Z,0.00
2018-12-09T04:25:45.357Z,0.00
2018-12-09T04:26:45.357Z,0.00
2018-12-09T04:27:45.336Z,0.00
2018-12-09T04:28:45.348Z,0.00
2018-12-09T04:29:45.383Z,0.00
2018-12-09T04:30:45.325Z,0.00
2018-12-09T04:31:45.557Z,0.00
2018-12-09T04:32:45.297Z,0.00
2018-12-09T04:33:45.311Z,0.00
2018-12-09T04:34:45.353Z,0.00
2018-12-09T04:35:45.634Z,0.00
2018-12-09T04:36:45.260Z,0.00
2018-12-09T04:37:45.248Z,0.00
2018-12-09T04:38:45.321Z,0.00
2018-12-09T04:39:45.206Z,0.00
2018-12-09T04:40:45.201Z,0.00
2018-12-09T04:41:45.254Z,0.00
2018-12-09T04:42:45.172Z,0.00
2018-12-09T04:43:45.167Z,0.00
2018-12-09T04:44:45.187Z,0.00
2018-12-09T04:45:45.139Z,0.00
2018-12-09T04:46:45.127Z,0.00
2018-12-09T04:47:45.150Z,0.00
2018-12-09T04:48:45.108Z,0.00
2018-12-09T04:49:45.094Z,0.00
2018-12-09T04:50:45.093Z,0.00
2018-12-09T04:51:45.073Z,0.00
2018-12-09T04:52:45.064Z,0.00
2018-12-09T04:53:45.100Z,0.00
2018-12-09T04:54:45.048Z,0.00
2018-12-09T04:55:45.036Z,0.00
2018-12-09T04:56:45.018Z,0.00
2018-12-09T04:57:45.057Z,0.00
2018-12-09T04:58:45.005Z,0.00
2018-12-09T04:59:45.121Z,0.00
2018-12-09T05:00:44.976Z,0.00
2018-12-09T05:01:45.042Z,0.00
2018-12-09T05:02:44.971Z,0.00
2018-12-09T05:03:44.968Z,0.00
2018-12-09T05:04:45.132Z,0.00
2018-12-09T05:05:45.706Z,0.00
2018-12-09T05:06:44.985Z,0.00
2018-12-09T05:07:44.950Z,0.00
2018-12-09T05:08:44.895Z,0.00
2018-12-09T05:09:44.895Z,0.00
2018-12-09T05:10:44.897Z,0.00
2018-12-09T05:11:44.899Z,0.00
2018-12-09T05:12:44.939Z,0.00
2018-12-09T05:13:44.833Z,0.00
2018-12-09T05:14:44.876Z,0.00
2018-12-09T05:15:44.821Z,0.00
2018-12-09T05:16:44.806Z,0.00
2018-12-09T05:17:44.834Z,0.00
2018-12-09T05:18:44.782Z,0.00
2018-12-09T05:19:44.787Z,0.00
2018-12-09T05:20:44.760Z,0.00
2018-12-09T05:21:44.770Z,0.00
2018-12-09T05:22:44.866Z,0.00
2018-12-09T05:23:44.785Z,0.00
2018-12-09T05:24:44.714Z,0.00
2018-12-09T05:25:44.704Z,0.00
2018-12-09T05:26:44.826Z,0.00
2018-12-09T05:27:44.697Z,0.00
2018-12-09T05:28:44.673Z,0.00
2018-12-09T05:29:44.780Z,0.00
2018-12-09T05:30:44.939Z,0.00
2018-12-09T05:31:44.704Z,0.00
2018-12-09T05:32:44.659Z,0.00
2018-12-09T05:33:44.690Z,0.00
2018-12-09T05:34:44.602Z,0.00
2018-12-09T05:35:44.631Z,0.00
2018-12-09T05:36:44.586Z,0.00
2018-12-09T05:37:44.573Z,0.00
2018-12-09T05:38:44.558Z,0.00
2018-12-09T05:39:44.553Z,0.00
2018-12-09T05:40:44.545Z,0.00
2018-12-09T05:41:44.581Z,0.00
2018-12-09T05:42:44.538Z,0.00
2018-12-09T05:43:44.510Z,0.00
2018-12-09T05:44:44.493Z,0.00
2018-12-09T05:45:44.486Z,0.00
2018-12-09T05:46:44.477Z,0.00
2018-12-09T05:47:44.502Z,0.00
2018-12-09T05:48:44.481Z,0.00
2018-12-09T05:49:44.455Z,0.00
2018-12-09T05:50:44.433Z,0.00
2018-12-09T05:51:44.427Z,0.00
2018-12-09T05:52:44.432Z,0.00
2018-12-09T05:53:44.454Z,0.00
2018-12-09T05:54:44.400Z,0.00
2018-12-09T05:55:44.375Z,0.00
2018-12-09T05:56:44.374Z,0.00
2018-12-09T05:57:44.767Z,0.00
2018-12-09T05:58:44.348Z,0.00
2018-12-09T05:59:44.373Z,0.00
2018-12-09T06:00:44.363Z,0.00
2018-12-09T06:01:44.332Z,0.00
2018-12-09T06:02:44.309Z,0.00
2018-12-09T06:03:44.296Z,0.00
2018-12-09T06:04:44.299Z,0.00
2018-12-09T06:05:44.314Z,0.00
2018-12-09T06:06:44.272Z,0.00
2018-12-09T06:07:44.253Z,0.00
2018-12-09T06:08:44.242Z,0.00
2018-12-09T06:09:44.228Z,0.00
2018-12-09T06:10:44.217Z,0.00
2018-12-09T06:11:44.228Z,0.00
2018-12-09T06:12:44.192Z,0.00
2018-12-09T06:13:44.189Z,0.00
2018-12-09T06:14:44.204Z,0.00
2018-12-09T06:15:44.165Z,0.00
2018-12-09T06:16:44.299Z,0.00
2018-12-09T06:17:44.163Z,0.00
2018-12-09T06:18:44.127Z,0.00
2018-12-09T06:19:44.109Z,0.00
2018-12-09T06:20:44.103Z,0.00
2018-12-09T06:21:44.103Z,0.00
2018-12-09T06:22:44.079Z,0.00
2018-12-09T06:23:44.121Z,0.00
2018-12-09T06:24:44.060Z,0.00
2018-12-09T06:25:44.047Z,0.00
2018-12-09T06:26:44.048Z,0.00
2018-12-09T06:27:44.024Z,0.00
2018-12-09T06:28:44.017Z,0.00
2018-12-09T06:29:44.033Z,0.00
2018-12-09T06:30:44.070Z,0.00
2018-12-09T06:31:43.984Z,0.00
2018-12-09T06:32:44.017Z,0.00
2018-12-09T06:33:43.960Z,0.00
2018-12-09T06:34:43.947Z,0.00
2018-12-09T06:35:43.978Z,0.00
2018-12-09T06:36:43.929Z,0.00
2018-12-09T06:37:43.919Z,0.00
2018-12-09T06:38:43.925Z,0.00
2018-12-09T06:39:43.893Z,0.00
2018-12-09T06:40:43.936Z,0.00
2018-12-09T06:41:43.952Z,0.00
2018-12-09T06:42:43.858Z,0.00
2018-12-09T06:43:43.847Z,0.00
2018-12-09T06:44:43.850Z,0.00
2018-12-09T06:45:43.857Z,0.00
2018-12-09T06:46:43.820Z,0.00
2018-12-09T06:47:43.896Z,0.00
2018-12-09T06:48:43.804Z,0.00
2018-12-09T06:49:43.787Z,0.00
2018-12-09T06:50:43.772Z,0.00
2018-12-09T06:51:43.774Z,0.00
2018-12-09T06:52:43.779Z,0.00
2018-12-09T06:53:43.785Z,0.00
2018-12-09T06:54:43.727Z,0.00
2018-12-09T06:55:43.716Z,0.00
2018-12-09T06:56:43.806Z,0.00
2018-12-09T06:57:43.697Z,0.00
2018-12-09T06:58:43.688Z,0.00
2018-12-09T06:59:43.758Z,0.00
2018-12-09T07:00:43.690Z,0.00
2018-12-09T07:01:43.654Z,0.00
2018-12-09T07:02:43.653Z,0.00
2018-12-09T07:03:43.630Z,0.00
2018-12-09T07:04:43.618Z,0.00
2018-12-09T07:05:43.653Z,0.00
2018-12-09T07:06:43.597Z,0.00
2018-12-09T07:07:43.615Z,0.00
2018-12-09T07:08:43.576Z,0.00
2018-12-09T07:09:43.564Z,0.00
2018-12-09T07:10:43.559Z,0.00
2018-12-09T07:11:43.575Z,0.00
2018-12-09T07:12:43.536Z,0.00
2018-12-09T07:13:43.522Z,0.00
2018-12-09T07:14:43.508Z,0.00
2018-12-09T07:15:43.499Z,0.00
2018-12-09T07:16:43.493Z,0.00
2018-12-09T07:17:43.519Z,0.00
2018-12-09T07:18:43.488Z,0.00
2018-12-09T07:19:43.454Z,5.62
2018-12-09T07:20:43.445Z,5.62
2018-12-09T07:21:43.434Z,5.62
2018-12-09T07:22:43.438Z,5.62
2018-12-09T07:23:43.452Z,5.62
2018-12-09T07:24:43.400Z,5.62
2018-12-09T07:25:43.388Z,5.62
2018-12-09T07:26:43.387Z,11.25
2018-12-09T07:27:43.378Z,11.25
2018-12-09T07:28:43.394Z,11.25
2018-12-09T07:29:43.377Z,11.25
2018-12-09T07:30:43.335Z,11.25
2018-12-09T07:31:43.324Z,11.25
2018-12-09T07:32:43.310Z,16.88
2018-12-09T07:33:43.305Z,11.25
2018-12-09T07:34:43.311Z,16.88
2018-12-09T07:35:43.364Z,16.88
2018-12-09T07:36:43.282Z,16.88
2018-12-09T07:37:43.268Z,16.88
2018-12-09T07:38:43.244Z,16.88
2018-12-09T07:39:43.237Z,16.88
2018-12-09T07:40:43.229Z,22.50
2018-12-09T07:41:43.250Z,22.50
2018-12-09T07:42:43.214Z,22.50
2018-12-09T07:43:43.189Z,22.50
2018-12-09T07:44:43.182Z,28.12
2018-12-09T07:45:43.171Z,33.75
2018-12-09T07:46:43.163Z,39.38
2018-12-09T07:47:43.179Z,39.38
2018-12-09T07:48:43.155Z,39.38
2018-12-09T07:49:43.129Z,39.38
2018-12-09T07:50:43.116Z,33.75
2018-12-09T07:51:43.104Z,33.75
2018-12-09T07:52:43.098Z,39.38
2018-12-09T07:53:43.119Z,39.38
2018-12-09T07:54:43.132Z,39.38
2018-12-09T07:55:43.058Z,33.75
2018-12-09T07:56:43.052Z,33.75
2018-12-09T07:57:43.060Z,45.00
2018-12-09T07:58:43.055Z,45.00
2018-12-09T07:59:43.051Z,50.62
2018-12-09T08:00:43.014Z,56.25
2018-12-09T08:01:42.992Z,56.25
2018-12-09T08:02:42.985Z,61.88
2018-12-09T08:03:42.981Z,67.50
2018-12-09T08:04:42.967Z,73.12
2018-12-09T08:05:42.981Z,78.75
2018-12-09T08:06:42.937Z,78.75
2018-12-09T08:07:42.933Z,78.75
2018-12-09T08:08:42.929Z,78.75
2018-12-09T08:09:42.907Z,78.75
2018-12-09T08:10:42.923Z,73.12
2018-12-09T08:11:42.915Z,73.12
2018-12-09T08:12:42.879Z,67.50
2018-12-09T08:13:42.861Z,67.50
2018-12-09T08:14:42.867Z,61.88
2018-12-09T08:15:42.849Z,67.50
2018-12-09T08:16:42.828Z,73.12
2018-12-09T08:17:42.860Z,67.50
2018-12-09T08:18:42.809Z,73.12
2018-12-09T08:19:42.796Z,84.38
2018-12-09T08:20:42.820Z,90.00
2018-12-09T08:21:42.787Z,90.00
2018-12-09T08:22:42.777Z,95.62
2018-12-09T08:23:42.787Z,95.62
2018-12-09T08:24:42.748Z,101.25
2018-12-09T08:25:42.730Z,101.25
2018-12-09T08:26:42.720Z,106.88
2018-12-09T08:27:42.710Z,118.12
2018-12-09T08:28:42.706Z,123.75
2018-12-09T08:29:42.732Z,123.75
2018-12-09T08:30:42.699Z,129.38
2018-12-09T08:31:42.717Z,129.38
2018-12-09T08:32:42.657Z,135.00
2018-12-09T08:33:42.645Z,140.62
2018-12-09T08:34:42.648Z,140.62
2018-12-09T08:35:42.656Z,129.38
2018-12-09T08:36:42.614Z,129.38
2018-12-09T08:37:42.637Z,129.38
2018-12-09T08:38:42.589Z,129.38
2018-12-09T08:39:42.578Z,129.38
2018-12-09T08:40:42.572Z,129.38
2018-12-09T08:41:42.606Z,129.38
2018-12-09T08:42:42.552Z,123.75
2018-12-09T08:43:42.536Z,123.75
2018-12-09T08:44:42.521Z,123.75
2018-12-09T08:45:42.521Z,123.75
2018-12-09T08:46:42.515Z,123.75
2018-12-09T08:47:42.563Z,129.38
2018-12-09T08:48:42.482Z,135.00
2018-12-09T08:49:42.470Z,129.38
2018-12-09T08:50:42.457Z,135.00
2018-12-09T08:51:42.478Z,135.00
2018-12-09T08:52:42.464Z,140.62
2018-12-09T08:53:42.455Z,140.62
2018-12-09T08:54:42.425Z,146.25
2018-12-09T08:55:42.401Z,157.50
2018-12-09T08:56:42.409Z,163.12
2018-12-09T08:57:42.385Z,168.75
2018-12-09T08:58:42.394Z,168.75
2018-12-09T08:59:42.395Z,163.12
2018-12-09T09:00:42.350Z,168.75
2018-12-09T09:01:42.336Z,163.12
2018-12-09T09:02:42.345Z,157.50
2018-12-09T09:03:42.334Z,151.88
2018-12-09T09:04:42.337Z,146.25
2018-12-09T09:05:42.362Z,140.62
2018-12-09T09:06:42.296Z,140.62
2018-12-09T09:07:42.274Z,129.38
2018-12-09T09:08:42.274Z,123.75
2018-12-09T09:09:42.256Z,129.38
2018-12-09T09:10:42.252Z,135.00
2018-12-09T09:11:42.255Z,151.88
2018-12-09T09:12:42.228Z,157.50
2018-12-09T09:13:42.222Z,151.88
2018-12-09T09:14:42.207Z,135.00
2018-12-09T09:15:42.278Z,140.62
2018-12-09T09:16:42.183Z,129.38
2018-12-09T09:17:42.203Z,129.38
2018-12-09T09:18:42.174Z,123.75
2018-12-09T09:19:42.245Z,112.50
2018-12-09T09:20:42.139Z,140.62
2018-12-09T09:21:42.120Z,163.12
2018-12-09T09:22:42.120Z,157.50
2018-12-09T09:23:42.145Z,146.25
2018-12-09T09:24:42.086Z,135.00
2018-12-09T09:25:42.171Z,123.75
2018-12-09T09:26:42.069Z,106.88
2018-12-09T09:27:42.091Z,106.88
2018-12-09T09:28:43.042Z,95.62
2018-12-09T09:29:42.082Z,95.62
2018-12-09T09:30:42.045Z,112.50
2018-12-09T09:31:42.016Z,123.75
2018-12-09T09:32:42.014Z,140.62
2018-12-09T09:33:42.062Z,151.88
2018-12-09T09:34:41.985Z,151.88
2018-12-09T09:35:42.024Z,146.25
2018-12-09T09:36:42.057Z,146.25
2018-12-09T09:37:41.957Z,146.25
2018-12-09T09:38:41.958Z,151.88
2018-12-09T09:39:41.938Z,135.00
2018-12-09T09:40:41.931Z,118.12
2018-12-09T09:41:41.937Z,123.75
2018-12-09T09:42:41.886Z,146.25
2018-12-09T09:43:41.971Z,163.12
2018-12-09T09:44:41.881Z,163.12
2018-12-09T09:45:41.873Z,163.12
2018-12-09T09:46:41.895Z,168.75
2018-12-09T09:47:41.919Z,168.75
2018-12-09T09:48:41.914Z,168.75
2018-12-09T09:49:41.834Z,174.38
2018-12-09T09:50:41.924Z,191.25
2018-12-09T09:51:41.808Z,202.50
2018-12-09T09:52:41.792Z,213.75
2018-12-09T09:53:41.804Z,225.00
2018-12-09T09:54:41.754Z,213.75
2018-12-09T09:55:41.815Z,180.00
2018-12-09T09:56:41.802Z,168.75
2018-12-09T09:57:41.722Z,174.38
2018-12-09T09:58:41.726Z,151.88
2018-12-09T09:59:41.747Z,157.50
2018-12-09T10:00:41.693Z,157.50
2018-12-09T10:01:41.688Z,208.12
2018-12-09T10:02:41.673Z,241.88
2018-12-09T10:03:41.663Z,230.62
2018-12-09T10:04:41.656Z,213.75
2018-12-09T10:05:42.057Z,208.12
2018-12-09T10:06:41.627Z,185.62
2018-12-09T10:07:41.658Z,208.12
2018-12-09T10:08:41.622Z,208.12
2018-12-09T10:09:41.590Z,191.25
2018-12-09T10:10:41.580Z,185.62
2018-12-09T10:11:41.609Z,174.38
2018-12-09T10:12:41.563Z,174.38
2018-12-09T10:13:41.574Z,191.25
2018-12-09T10:14:41.551Z,191.25
2018-12-09T10:15:41.525Z,196.88
2018-12-09T10:16:41.653Z,196.88
2018-12-09T10:17:41.536Z,180.00
2018-12-09T10:18:41.495Z,168.75
2018-12-09T10:19:41.482Z,163.12
2018-12-09T10:20:41.473Z,151.88
2018-12-09T10:21:42.144Z,146.25
2018-12-09T10:22:41.467Z,123.75
2018-12-09T10:23:41.552Z,101.25
2018-12-09T10:24:41.479Z,90.00
2018-12-09T10:25:41.418Z,78.75
2018-12-09T10:26:41.440Z,73.12
2018-12-09T10:27:41.451Z,78.75
2018-12-09T10:28:41.387Z,67.50
2018-12-09T10:29:41.435Z,50.62
2018-12-09T10:30:41.374Z,39.38
2018-12-09T10:31:41.353Z,39.38
2018-12-09T10:32:41.376Z,45.00
2018-12-09T10:33:41.363Z,45.00
2018-12-09T10:34:41.344Z,50.62
2018-12-09T10:35:41.359Z,56.25
2018-12-09T10:36:41.318Z,67.50
2018-12-09T10:37:41.296Z,84.38
2018-12-09T10:38:41.291Z,73.12
2018-12-09T10:39:41.264Z,73.12
2018-12-09T10:40:41.264Z,73.12
2018-12-09T10:41:41.268Z,73.12
2018-12-09T10:42:41.229Z,73.12
2018-12-09T10:43:41.224Z,73.12
2018-12-09T10:44:41.217Z,61.88
2018-12-09T10:45:41.200Z,56.25
2018-12-09T10:46:41.190Z,61.88
2018-12-09T10:47:41.214Z,56.25
2018-12-09T10:48:41.164Z,50.62
2018-12-09T10:49:41.169Z,50.62
2018-12-09T10:50:41.164Z,50.62
2018-12-09T10:51:41.143Z,45.00
2018-12-09T10:52:41.125Z,39.38
2018-12-09T10:53:41.169Z,33.75
2018-12-09T10:54:41.099Z,28.12
2018-12-09T10:55:41.096Z,22.50
2018-12-09T10:56:41.094Z,28.12
2018-12-09T10:57:41.066Z,33.75
2018-12-09T10:58:41.055Z,39.38
2018-12-09T10:59:41.073Z,39.38
2018-12-09T11:00:41.036Z,45.00
2018-12-09T11:01:41.034Z,61.88
2018-12-09T11:02:41.012Z,78.75
2018-12-09T11:03:41.028Z,84.38
2018-12-09T11:04:40.990Z,78.75
2018-12-09T11:05:41.008Z,84.38
2018-12-09T11:06:40.969Z,84.38
2018-12-09T11:07:40.967Z,84.38
2018-12-09T11:08:40.957Z,78.75
2018-12-09T11:09:40.959Z,50.62
2018-12-09T11:10:40.927Z,33.75
2018-12-09T11:11:40.956Z,22.50
2018-12-09T11:12:40.905Z,16.88
2018-12-09T11:13:40.893Z,11.25
2018-12-09T11:14:40.887Z,11.25
2018-12-09T11:15:40.991Z,11.25
2018-12-09T11:16:40.873Z,11.25
2018-12-09T11:17:40.883Z,16.88
2018-12-09T11:18:40.843Z,16.88
2018-12-09T11:19:40.838Z,11.25
2018-12-09T11:20:40.831Z,11.25
2018-12-09T11:21:40.812Z,11.25
2018-12-09T11:22:40.827Z,16.88
2018-12-09T11:23:40.891Z,16.88
2018-12-09T11:24:40.790Z,11.25
2018-12-09T11:25:40.775Z,11.25
2018-12-09T11:26:40.759Z,11.25
2018-12-09T11:27:40.749Z,11.25
2018-12-09T11:28:40.769Z,11.25
2018-12-09T11:29:40.779Z,16.88
2018-12-09T11:30:40.739Z,11.25
2018-12-09T11:31:40.773Z,11.25
2018-12-09T11:32:40.706Z,16.88
2018-12-09T11:33:40.690Z,16.88
2018-12-09T11:34:40.764Z,16.88
2018-12-09T11:35:40.840Z,16.88
2018-12-09T11:36:40.646Z,22.50
2018-12-09T11:37:40.707Z,22.50
2018-12-09T11:38:40.646Z,28.12
2018-12-09T11:39:40.612Z,33.75
2018-12-09T11:40:40.613Z,33.75
2018-12-09T11:41:40.756Z,28.12
2018-12-09T11:42:40.587Z,22.50
2018-12-09T11:43:40.573Z,22.50
2018-12-09T11:44:40.686Z,22.50
2018-12-09T11:45:40.563Z,16.88
2018-12-09T11:46:40.640Z,16.88
2018-12-09T11:47:40.567Z,16.88
2018-12-09T11:48:40.584Z,16.88
2018-12-09T11:49:40.506Z,16.88
2018-12-09T11:50:40.705Z,22.50
2018-12-09T11:51:40.484Z,28.12
2018-12-09T11:52:40.473Z,45.00
2018-12-09T11:53:40.504Z,56.25
2018-12-09T11:54:40.452Z,73.12
2018-12-09T11:55:40.453Z,90.00
2018-12-09T11:56:40.431Z,101.25
2018-12-09T11:57:40.418Z,112.50
2018-12-09T11:58:40.409Z,123.75
2018-12-09T11:59:40.428Z,135.00
2018-12-09T12:00:40.385Z,146.25
2018-12-09T12:01:40.386Z,151.88
2018-12-09T12:02:40.371Z,163.12
2018-12-09T12:03:40.363Z,168.75
2018-12-09T12:04:40.344Z,174.38
2018-12-09T12:05:40.369Z,168.75
2018-12-09T12:06:40.322Z,163.12
2018-12-09T12:07:40.325Z,168.75
2018-12-09T12:08:40.299Z,163.12
2018-12-09T12:09:40.299Z,185.62
2018-12-09T12:10:40.277Z,213.75
2018-12-09T12:11:40.302Z,213.75
2018-12-09T12:12:40.257Z,230.62
2018-12-09T12:13:40.247Z,241.88
2018-12-09T12:14:40.238Z,270.00
2018-12-09T12:15:40.234Z,275.62
2018-12-09T12:16:40.219Z,281.25
2018-12-09T12:17:40.243Z,281.25
2018-12-09T12:18:40.197Z,286.88
2018-12-09T12:19:40.189Z,286.88
2018-12-09T12:20:40.170Z,275.62
2018-12-09T12:21:40.161Z,286.88
2018-12-09T12:22:40.147Z,286.88
2018-12-09T12:23:40.179Z,286.88
2018-12-09T12:24:40.139Z,258.75
2018-12-09T12:25:40.122Z,236.25
2018-12-09T12:26:40.105Z,258.75
2018-12-09T12:27:40.094Z,270.00
2018-12-09T12:28:40.085Z,264.38
2018-12-09T12:29:40.101Z,253.12
2018-12-09T12:30:40.061Z,236.25
2018-12-09T12:31:40.055Z,225.00
2018-12-09T12:32:40.045Z,191.25
2018-12-09T12:33:40.029Z,163.12
2018-12-09T12:34:40.028Z,168.75
2018-12-09T12:35:40.077Z,163.12
2018-12-09T12:36:40.018Z,168.75
2018-12-09T12:37:39.993Z,191.25
2018-12-09T12:38:39.999Z,230.62
2018-12-09T12:39:39.994Z,292.50
2018-12-09T12:40:39.961Z,315.00
2018-12-09T12:41:39.987Z,337.50
2018-12-09T12:42:39.942Z,270.00
2018-12-09T12:43:39.929Z,241.88
2018-12-09T12:44:39.928Z,219.38
2018-12-09T12:45:39.919Z,241.88
2018-12-09T12:46:39.902Z,264.38
2018-12-09T12:47:39.919Z,303.75
2018-12-09T12:48:40.101Z,286.88
2018-12-09T12:49:39.871Z,303.75
2018-12-09T12:50:39.900Z,281.25
2018-12-09T12:51:39.889Z,275.62
2018-12-09T12:52:39.865Z,303.75
2018-12-09T12:53:39.873Z,264.38
2018-12-09T12:54:39.807Z,241.88
2018-12-09T12:55:39.854Z,258.75
2018-12-09T12:56:39.783Z,270.00
2018-12-09T12:57:39.800Z,258.75
2018-12-09T12:58:39.770Z,292.50
2018-12-09T12:59:39.776Z,337.50
2018-12-09T13:00:39.743Z,286.88
2018-12-09T13:01:39.728Z,247.50